createdAt,value
2023-04-26T00:01:58.921Z,1.13
2023-04-26T00:04:26.290Z,1.20
2023-04-26T00:06:53.230Z,1.40
2023-04-26T00:09:20.168Z,1.50
2023-04-26T00:11:47.260Z,1.23
2023-04-26T00:14:14.364Z,1.60
2023-04-26T00:16:41.263Z,1.30
2023-04-26T00:19:10.383Z,1.10
2023-04-26T00:21:37.393Z,1.10
2023-04-26T00:24:05.665Z,1.00
2023-04-26T00:26:34.378Z,1.00
2023-04-26T00:29:02.110Z,1.13
2023-04-26T00:31:29.066Z,1.00
2023-04-26T00:33:56.132Z,1.30
2023-04-26T00:36:22.949Z,1.05
2023-04-26T00:38:49.929Z,1.15
2023-04-26T00:41:16.921Z,1.02
2023-04-26T00:43:44.037Z,0.90
2023-04-26T00:46:11.438Z,0.90
2023-04-26T00:48:38.417Z,1.40
2023-04-26T00:51:06.575Z,1.20
2023-04-26T00:53:35.451Z,1.25
2023-04-26T00:56:03.499Z,1.38
2023-04-26T00:58:30.471Z,1.30
2023-04-26T01:00:57.487Z,1.30
2023-04-26T01:03:25.162Z,1.10
2023-04-26T01:05:53.183Z,1.20
2023-04-26T01:08:21.833Z,1.50
2023-04-26T01:10:50.468Z,1.38
2023-04-26T01:13:17.455Z,1.10
2023-04-26T01:15:47.958Z,1.20
2023-04-26T01:18:15.267Z,1.13
2023-04-26T01:20:43.031Z,1.10
2023-04-26T01:23:11.682Z,1.17
2023-04-26T01:25:39.219Z,1.33
2023-04-26T01:28:06.259Z,1.20
2023-04-26T01:30:33.202Z,1.30
2023-04-26T01:33:03.218Z,1.25
2023-04-26T01:35:33.468Z,1.23
2023-04-26T01:38:04.301Z,1.10
2023-04-26T01:40:31.237Z,1.20
2023-04-26T01:42:58.025Z,1.10
2023-04-26T01:45:25.300Z,1.00
2023-04-26T01:48:10.462Z,1.40
2023-04-26T01:50:37.299Z,1.58
2023-04-26T01:53:04.632Z,1.50
2023-04-26T01:55:31.489Z,1.20
2023-04-26T01:57:58.279Z,1.15
2023-04-26T02:00:25.084Z,1.20
2023-04-26T02:02:55.802Z,1.23
2023-04-26T02:05:24.385Z,1.13
2023-04-26T02:07:51.611Z,1.25
2023-04-26T02:10:18.468Z,1.25
2023-04-26T02:12:45.376Z,1.17
2023-04-26T02:15:12.268Z,1.20
2023-04-26T02:17:39.856Z,1.30
2023-04-26T02:20:10.380Z,1.00
2023-04-26T02:22:37.396Z,1.00
2023-04-26T02:25:05.441Z,1.10
2023-04-26T02:27:33.751Z,1.13
2023-04-26T02:30:00.975Z,1.27
2023-04-26T02:32:27.880Z,1.30
2023-04-26T02:34:54.803Z,1.52
2023-04-26T02:37:22.222Z,1.33
2023-04-26T02:39:52.402Z,1.00
2023-04-26T02:42:19.335Z,1.33
2023-04-26T02:44:47.478Z,1.35
2023-04-26T02:47:14.388Z,1.20
2023-04-26T02:49:41.207Z,1.02
2023-04-26T02:52:08.142Z,1.20
2023-04-26T02:54:35.643Z,1.40
2023-04-26T02:57:02.733Z,1.55
2023-04-26T02:59:30.277Z,1.20
2023-04-26T03:01:57.213Z,1.20
2023-04-26T03:04:24.701Z,1.42
2023-04-26T03:06:51.541Z,1.13
2023-04-26T03:09:18.408Z,1.17
2023-04-26T03:11:46.454Z,1.40
2023-04-26T03:14:15.052Z,1.30
2023-04-26T03:16:43.305Z,1.50
2023-04-26T03:19:10.394Z,1.02
2023-04-26T03:21:38.850Z,1.17
2023-04-26T03:24:06.564Z,1.30
2023-04-26T03:26:33.775Z,1.30
2023-04-26T03:29:01.016Z,1.15
2023-04-26T03:31:27.867Z,1.35
2023-04-26T03:33:54.748Z,1.40
2023-04-26T03:36:22.203Z,1.30
2023-04-26T03:38:49.461Z,1.25
2023-04-26T03:41:18.128Z,1.20
2023-04-26T03:43:44.972Z,1.33
2023-04-26T03:46:12.526Z,1.50
2023-04-26T03:48:39.973Z,1.30
2023-04-26T03:51:07.027Z,1.48
2023-04-26T03:53:33.856Z,1.30
2023-04-26T03:56:01.148Z,1.33
2023-04-26T03:58:28.428Z,1.50
2023-04-26T04:00:58.564Z,1.35
2023-04-26T04:03:26.120Z,1.77
2023-04-26T04:05:53.325Z,1.30
2023-04-26T04:08:20.136Z,1.42
2023-04-26T04:10:47.144Z,1.50
2023-04-26T04:13:13.981Z,1.40
2023-04-26T04:15:41.848Z,1.60
2023-04-26T04:18:09.240Z,1.65
2023-04-26T04:20:36.428Z,1.80
2023-04-26T04:23:06.267Z,1.30
2023-04-26T04:25:33.499Z,1.40
2023-04-26T04:28:03.674Z,1.70
2023-04-26T04:30:31.088Z,1.65
2023-04-26T04:33:01.649Z,1.20
2023-04-26T04:35:33.632Z,1.55
2023-04-26T04:38:03.441Z,1.77
2023-04-26T04:40:31.448Z,1.60
2023-04-26T04:43:01.018Z,1.80
2023-04-26T04:45:28.706Z,1.65
2023-04-26T04:47:57.400Z,1.67
2023-04-26T04:50:26.541Z,1.40
2023-04-26T04:52:53.447Z,1.33
2023-04-26T04:55:20.420Z,0.90
2023-04-26T04:57:47.189Z,1.30
2023-04-26T05:00:15.759Z,1.35
2023-04-26T05:02:50.098Z,1.40
2023-04-26T05:05:17.229Z,1.45
2023-04-26T05:07:44.449Z,1.63
2023-04-26T05:10:12.104Z,1.50
2023-04-26T05:12:39.012Z,1.23
2023-04-26T05:15:07.471Z,1.13
2023-04-26T05:17:34.939Z,1.42
2023-04-26T05:20:12.553Z,1.50
2023-04-26T05:22:39.995Z,1.30
2023-04-26T05:25:08.524Z,1.70
2023-04-26T05:27:37.363Z,1.92
2023-04-26T05:30:16.736Z,1.60
2023-04-26T05:32:46.873Z,1.42
2023-04-26T05:35:22.124Z,1.50
2023-04-26T05:37:49.946Z,1.45
2023-04-26T05:40:18.613Z,1.60
2023-04-26T05:42:45.520Z,1.80
2023-04-26T05:45:12.606Z,1.23
2023-04-26T05:47:39.584Z,1.38
2023-04-26T05:50:07.158Z,1.40
2023-04-26T05:52:34.136Z,1.38
2023-04-26T05:55:05.869Z,1.50
2023-04-26T05:57:32.809Z,1.40
2023-04-26T05:59:59.629Z,1.30
2023-04-26T06:02:26.996Z,1.27
2023-04-26T06:04:54.406Z,1.27
2023-04-26T06:07:21.555Z,1.20
2023-04-26T06:09:48.658Z,1.30
2023-04-26T06:12:16.761Z,1.35
2023-04-26T06:14:45.352Z,1.30
2023-04-26T06:17:16.639Z,1.58
2023-04-26T06:19:43.588Z,1.40
2023-04-26T06:22:11.066Z,1.70
2023-04-26T06:24:38.570Z,1.38
2023-04-26T06:27:05.451Z,1.70
2023-04-26T06:29:35.595Z,1.60
2023-04-26T06:32:02.853Z,1.88
2023-04-26T06:34:30.444Z,1.98
2023-04-26T06:36:57.425Z,2.30
2023-04-26T06:39:25.800Z,2.10
2023-04-26T06:41:52.714Z,2.22
2023-04-26T06:44:27.609Z,2.53
2023-04-26T06:47:01.628Z,2.42
2023-04-26T06:49:28.622Z,2.65
2023-04-26T06:51:55.564Z,2.80
2023-04-26T06:54:22.365Z,2.60
2023-04-26T06:56:49.192Z,2.15
2023-04-26T06:59:16.049Z,2.40
2023-04-26T07:01:43.101Z,2.30
2023-04-26T07:04:12.949Z,2.30
2023-04-26T07:06:39.995Z,2.30
2023-04-26T07:09:08.038Z,2.42
2023-04-26T07:11:34.915Z,2.42
2023-04-26T07:14:02.179Z,2.90
2023-04-26T07:16:29.109Z,2.70
2023-04-26T07:18:58.456Z,2.97
2023-04-26T07:21:29.252Z,2.45
2023-04-26T07:23:56.716Z,2.20
2023-04-26T07:26:24.645Z,2.42
2023-04-26T07:28:52.462Z,2.03
2023-04-26T07:31:20.356Z,2.13
2023-04-26T07:33:47.295Z,2.05
2023-04-26T07:36:14.254Z,2.47
2023-04-26T07:38:41.328Z,2.95
2023-04-26T07:41:08.239Z,2.40
2023-04-26T07:43:35.115Z,3.05
2023-04-26T07:46:03.166Z,2.72
2023-04-26T07:48:30.207Z,2.20
2023-04-26T07:50:57.243Z,2.08
2023-04-26T07:53:24.201Z,2.33
2023-04-26T07:55:54.997Z,2.60
2023-04-26T07:58:22.291Z,2.25
2023-04-26T08:00:49.150Z,2.20
2023-04-26T08:03:19.188Z,2.65
2023-04-26T08:05:46.639Z,2.63
2023-04-26T08:08:13.779Z,2.25
2023-04-26T08:10:41.841Z,3.10
2023-04-26T08:13:08.836Z,2.67
2023-04-26T08:15:35.692Z,2.33
2023-04-26T08:18:02.616Z,2.90
2023-04-26T08:20:29.552Z,2.30
2023-04-26T08:22:57.117Z,2.33
2023-04-26T08:25:24.654Z,2.17
2023-04-26T08:27:52.012Z,2.20
2023-04-26T08:30:19.465Z,2.10
2023-04-26T08:32:46.719Z,1.52
2023-04-26T08:35:13.682Z,1.60
2023-04-26T08:37:40.597Z,2.08
2023-04-26T08:40:11.441Z,1.70
2023-04-26T08:42:44.327Z,1.60
2023-04-26T08:45:11.795Z,2.05
2023-04-26T08:47:49.725Z,1.90
2023-04-26T08:50:22.475Z,1.65
2023-04-26T08:52:51.523Z,1.50
2023-04-26T08:55:22.859Z,1.77
2023-04-26T08:57:51.101Z,1.60
2023-04-26T09:00:18.791Z,1.70
2023-04-26T09:02:53.060Z,1.60
2023-04-26T09:05:26.672Z,1.65
2023-04-26T09:08:16.966Z,1.80
2023-04-26T09:10:44.004Z,1.67
2023-04-26T09:13:11.444Z,1.80
2023-04-26T09:15:38.816Z,1.80
2023-04-26T09:18:26.570Z,1.77
2023-04-26T09:21:08.103Z,2.08
2023-04-26T09:23:35.715Z,1.98
2023-04-26T09:26:22.424Z,1.85
2023-04-26T09:28:50.669Z,1.60
2023-04-26T09:31:39.136Z,1.67
2023-04-26T09:34:06.347Z,1.83
2023-04-26T09:36:33.281Z,1.63
2023-04-26T09:39:00.532Z,1.90
2023-04-26T09:41:47.649Z,1.70
2023-04-26T09:44:24.607Z,1.50
2023-04-26T09:46:59.915Z,1.50
2023-04-26T09:49:29.922Z,1.45
2023-04-26T09:52:05.250Z,1.00
2023-04-26T09:54:52.460Z,1.33
2023-04-26T09:57:22.199Z,1.40
2023-04-26T09:59:54.216Z,1.55
2023-04-26T10:02:24.896Z,1.85
2023-04-26T10:04:54.726Z,0.85
2023-04-26T10:07:23.615Z,1.40
2023-04-26T10:09:50.850Z,1.40
2023-04-26T10:12:19.486Z,1.67
2023-04-26T10:14:47.067Z,1.00
2023-04-26T10:17:14.466Z,1.20
2023-04-26T10:19:46.829Z,1.50
2023-04-26T10:22:27.105Z,1.00
2023-04-26T10:24:55.982Z,1.20
2023-04-26T10:27:44.839Z,1.23
2023-04-26T10:30:16.482Z,0.90
2023-04-26T10:32:56.092Z,1.15
2023-04-26T10:35:27.525Z,1.30
2023-04-26T10:38:01.158Z,2.53
2023-04-26T10:40:35.316Z,1.33
2023-04-26T10:43:14.834Z,1.33
2023-04-26T10:45:43.780Z,1.45
2023-04-26T10:48:31.344Z,1.00
2023-04-26T10:51:27.172Z,1.02
2023-04-26T10:53:54.652Z,0.90
2023-04-26T10:56:27.856Z,0.90
2023-04-26T10:59:33.197Z,0.77
2023-04-26T11:02:01.631Z,1.30
2023-04-26T11:04:54.917Z,0.95
2023-04-26T11:07:37.822Z,1.00
2023-04-26T11:10:10.536Z,1.13
2023-04-26T11:12:41.702Z,1.00
2023-04-26T11:15:09.071Z,1.13
2023-04-26T11:17:39.051Z,1.35
2023-04-26T11:20:10.141Z,1.35
2023-04-26T11:22:41.880Z,1.63
2023-04-26T11:25:09.660Z,1.38
2023-04-26T11:27:36.850Z,1.77
2023-04-26T11:30:05.167Z,1.67
2023-04-26T11:32:33.156Z,1.38
2023-04-26T11:35:04.181Z,1.35
2023-04-26T11:37:31.096Z,1.65
2023-04-26T11:39:57.921Z,1.27
2023-04-26T11:42:26.271Z,1.27
2023-04-26T11:44:54.238Z,1.52
2023-04-26T11:47:22.811Z,1.30
2023-04-26T11:49:50.234Z,0.85
2023-04-26T11:52:17.171Z,1.00
2023-04-26T11:54:44.673Z,1.15
2023-04-26T11:57:17.235Z,1.17
2023-04-26T11:59:45.024Z,1.50
2023-04-26T12:02:12.619Z,1.48
2023-04-26T12:04:41.655Z,1.15
2023-04-26T12:07:09.470Z,1.23
2023-04-26T12:09:41.740Z,1.40
2023-04-26T12:12:09.066Z,1.33
2023-04-26T12:14:39.824Z,1.20
2023-04-26T12:17:08.008Z,0.95
2023-04-26T12:19:36.769Z,1.40
2023-04-26T12:22:04.469Z,1.02
2023-04-26T12:24:34.645Z,1.15
2023-04-26T12:27:07.393Z,1.33
2023-04-26T12:29:35.184Z,1.45
2023-04-26T12:32:02.660Z,1.50
2023-04-26T12:34:29.724Z,1.40
2023-04-26T12:36:56.992Z,1.45
2023-04-26T12:39:23.813Z,1.27
2023-04-26T12:41:50.607Z,1.50
2023-04-26T12:44:19.647Z,2.17
2023-04-26T12:46:48.414Z,1.88
2023-04-26T12:49:15.407Z,1.83
2023-04-26T12:51:42.321Z,1.20
2023-04-26T12:54:09.280Z,1.13
2023-04-26T12:56:40.782Z,1.20
2023-04-26T12:59:07.850Z,1.35
2023-04-26T13:01:35.073Z,1.65
2023-04-26T13:04:04.792Z,1.35
2023-04-26T13:06:32.512Z,1.33
2023-04-26T13:08:59.597Z,1.27
2023-04-26T13:11:26.486Z,1.20
2023-04-26T13:13:53.421Z,1.20
2023-04-26T13:16:20.454Z,1.63
2023-04-26T13:18:47.376Z,1.40
2023-04-26T13:21:14.456Z,1.48
2023-04-26T13:23:41.329Z,1.30
2023-04-26T13:26:08.178Z,1.60
2023-04-26T13:28:36.759Z,1.38
2023-04-26T13:31:03.714Z,1.30
2023-04-26T13:33:30.527Z,0.90
2023-04-26T13:35:57.445Z,1.40
2023-04-26T13:38:25.345Z,1.58
2023-04-26T13:40:54.023Z,1.45
2023-04-26T13:43:20.952Z,1.50
2023-04-26T13:45:47.820Z,1.50
2023-04-26T13:48:15.122Z,1.40
2023-04-26T13:50:42.660Z,1.20
2023-04-26T13:53:09.566Z,1.25
2023-04-26T13:55:36.352Z,1.25
2023-04-26T13:58:03.238Z,1.30
2023-04-26T14:00:30.083Z,1.50
2023-04-26T14:02:57.303Z,1.73
2023-04-26T14:05:24.501Z,0.90
2023-04-26T14:07:53.035Z,1.45
2023-04-26T14:10:21.776Z,1.55
2023-04-26T14:12:48.861Z,1.33
2023-04-26T14:15:16.160Z,1.33
2023-04-26T14:17:43.271Z,1.20
2023-04-26T14:20:10.761Z,1.33
2023-04-26T14:22:37.922Z,1.13
2023-04-26T14:25:05.311Z,1.30
2023-04-26T14:27:32.714Z,1.20
2023-04-26T14:29:59.640Z,1.20
2023-04-26T14:32:26.981Z,1.15
2023-04-26T14:34:53.989Z,1.42
2023-04-26T14:37:22.799Z,1.00
2023-04-26T14:39:50.703Z,0.90
2023-04-26T14:42:17.827Z,0.80
2023-04-26T14:44:46.515Z,1.08
2023-04-26T14:47:13.583Z,1.30
2023-04-26T14:49:40.489Z,1.40
2023-04-26T14:52:07.550Z,1.27
2023-04-26T14:54:38.691Z,1.00
2023-04-26T14:57:05.516Z,1.40
2023-04-26T14:59:32.932Z,1.10
2023-04-26T15:01:59.977Z,1.05
2023-04-26T15:04:27.416Z,1.23
2023-04-26T15:06:54.440Z,1.10
2023-04-26T15:09:21.672Z,1.25
2023-04-26T15:11:48.503Z,1.05
2023-04-26T15:14:15.761Z,1.30
2023-04-26T15:16:42.659Z,1.02
2023-04-26T15:19:09.757Z,0.98
2023-04-26T15:21:37.041Z,1.40
2023-04-26T15:24:04.088Z,1.08
2023-04-26T15:26:31.090Z,1.00
2023-04-26T15:28:58.315Z,0.80
2023-04-26T15:31:25.303Z,1.13
2023-04-26T15:33:56.368Z,1.30
2023-04-26T15:36:23.292Z,0.90
2023-04-26T15:38:50.236Z,0.85
2023-04-26T15:41:17.120Z,0.82
2023-04-26T15:43:43.992Z,1.10
2023-04-26T15:46:14.635Z,1.10
2023-04-26T15:48:41.524Z,1.15
2023-04-26T15:51:08.424Z,0.80
2023-04-26T15:53:36.439Z,1.17
2023-04-26T15:56:24.464Z,1.20
2023-04-26T15:58:51.481Z,1.00
2023-04-26T16:01:19.009Z,1.10
2023-04-26T16:03:47.699Z,0.85
2023-04-26T16:06:15.143Z,0.90
2023-04-26T16:08:42.300Z,1.00
2023-04-26T16:11:09.176Z,1.20
2023-04-26T16:13:36.217Z,1.40
2023-04-26T16:16:10.753Z,0.90
2023-04-26T16:18:39.854Z,0.85
2023-04-26T16:21:09.747Z,0.93
2023-04-26T16:23:37.594Z,0.82
2023-04-26T16:26:05.271Z,0.90
2023-04-26T16:28:32.220Z,0.90
2023-04-26T16:30:59.158Z,0.85
2023-04-26T16:33:26.836Z,0.80
2023-04-26T16:35:55.484Z,1.00
2023-04-26T16:38:23.048Z,0.90
2023-04-26T16:40:57.840Z,1.08
2023-04-26T16:43:28.342Z,1.38
2023-04-26T16:45:58.291Z,1.40
2023-04-26T16:48:25.591Z,0.98
2023-04-26T16:50:52.421Z,0.70
2023-04-26T16:53:21.253Z,0.90
2023-04-26T16:55:49.798Z,0.80
2023-04-26T16:58:16.755Z,1.00
2023-04-26T17:00:44.944Z,0.98
2023-04-26T17:03:12.743Z,0.70
2023-04-26T17:05:41.111Z,0.75
2023-04-26T17:08:09.097Z,1.15
2023-04-26T17:10:36.810Z,1.20
2023-04-26T17:13:06.329Z,1.08
2023-04-26T17:15:34.340Z,1.10
2023-04-26T17:18:02.324Z,0.93
2023-04-26T17:20:29.766Z,0.93
2023-04-26T17:22:57.127Z,1.00
2023-04-26T17:25:24.830Z,1.00
2023-04-26T17:27:52.246Z,1.00
2023-04-26T17:30:20.763Z,0.98
2023-04-26T17:32:47.954Z,1.23
2023-04-26T17:35:14.897Z,1.00
2023-04-26T17:37:42.080Z,0.95
2023-04-26T17:40:10.061Z,1.20
2023-04-26T17:42:36.956Z,0.63
2023-04-26T17:45:05.894Z,0.88
2023-04-26T17:47:33.105Z,1.10
2023-04-26T17:50:00.001Z,0.90
2023-04-26T17:52:27.203Z,1.25
2023-04-26T17:54:54.654Z,1.23
2023-04-26T17:57:23.760Z,1.13
2023-04-26T17:59:52.162Z,0.95
2023-04-26T18:02:19.386Z,1.10
2023-04-26T18:04:47.725Z,1.08
2023-04-26T18:07:15.787Z,0.90
2023-04-26T18:09:42.844Z,1.30
2023-04-26T18:12:09.905Z,0.88
2023-04-26T18:14:39.138Z,1.25
2023-04-26T18:17:06.260Z,0.93
2023-04-26T18:19:33.423Z,1.10
2023-04-26T18:22:00.625Z,0.70
2023-04-26T18:24:27.849Z,0.73
2023-04-26T18:26:55.262Z,0.60
2023-04-26T18:29:22.381Z,0.60
2023-04-26T18:31:49.925Z,0.60
2023-04-26T18:34:16.790Z,1.48
2023-04-26T18:36:43.939Z,1.30
2023-04-26T18:39:10.877Z,1.17
2023-04-26T18:41:38.197Z,1.42
2023-04-26T18:44:13.113Z,1.30
2023-04-26T18:46:41.501Z,1.38
2023-04-26T18:49:09.417Z,1.40
2023-04-26T18:51:36.558Z,1.20
2023-04-26T18:54:03.797Z,1.30
2023-04-26T18:56:31.587Z,1.30
2023-04-26T18:58:58.528Z,1.33
2023-04-26T19:01:25.638Z,1.20
2023-04-26T19:03:53.105Z,1.40
2023-04-26T19:06:20.745Z,1.30
2023-04-26T19:08:47.779Z,1.05
2023-04-26T19:11:14.783Z,1.42
2023-04-26T19:13:42.193Z,1.48
2023-04-26T19:16:10.230Z,1.60
2023-04-26T19:18:37.634Z,1.40
2023-04-26T19:21:05.257Z,1.50
2023-04-26T19:23:32.347Z,1.33
2023-04-26T19:26:06.475Z,1.20
2023-04-26T19:28:33.816Z,1.50
2023-04-26T19:31:01.642Z,1.50
2023-04-26T19:33:29.136Z,1.52
2023-04-26T19:35:56.740Z,1.48
2023-04-26T19:38:24.251Z,2.65
2023-04-26T19:40:52.063Z,1.90
2023-04-26T19:43:19.010Z,1.60
2023-04-26T19:45:46.564Z,1.60
2023-04-26T19:48:13.976Z,1.70
2023-04-26T19:50:43.003Z,1.85
2023-04-26T19:53:11.495Z,1.73
2023-04-26T19:55:38.811Z,1.30
2023-04-26T19:58:07.095Z,1.30
2023-04-26T20:00:38.895Z,1.30
2023-04-26T20:03:06.711Z,1.08
2023-04-26T20:05:34.629Z,1.38
2023-04-26T20:08:02.141Z,1.30
2023-04-26T20:10:33.704Z,1.65
2023-04-26T20:13:01.577Z,1.48
2023-04-26T20:15:29.832Z,1.67
2023-04-26T20:17:58.309Z,1.30
2023-04-26T20:20:25.518Z,1.40
2023-04-26T20:22:52.683Z,1.50
2023-04-26T20:25:20.216Z,1.52
2023-04-26T20:27:48.192Z,1.10
2023-04-26T20:30:16.059Z,1.23
2023-04-26T20:32:43.805Z,1.45
2023-04-26T20:35:12.882Z,1.50
2023-04-26T20:37:40.215Z,1.30
2023-04-26T20:40:07.989Z,1.17
2023-04-26T20:42:34.891Z,1.23
2023-04-26T20:45:02.578Z,1.15
2023-04-26T20:47:30.205Z,1.20
2023-04-26T20:49:57.143Z,1.23
2023-04-26T20:52:24.028Z,1.25
2023-04-26T20:54:50.858Z,1.40
2023-04-26T20:57:18.000Z,1.20
2023-04-26T20:59:44.893Z,1.38
2023-04-26T21:02:11.841Z,1.60
2023-04-26T21:04:41.758Z,1.13
2023-04-26T21:07:09.638Z,1.05
2023-04-26T21:09:36.730Z,1.40
2023-04-26T21:12:04.065Z,1.52
2023-04-26T21:14:31.132Z,1.80
2023-04-26T21:16:58.439Z,1.73
2023-04-26T21:19:25.312Z,1.67
2023-04-26T21:21:52.192Z,1.67
2023-04-26T21:24:19.021Z,1.70
2023-04-26T21:26:45.878Z,1.45
2023-04-26T21:29:12.832Z,1.60
2023-04-26T21:31:39.742Z,1.70
2023-04-26T21:34:06.639Z,1.77
2023-04-26T21:36:33.573Z,1.60
2023-04-26T21:39:00.371Z,1.52
2023-04-26T21:41:27.243Z,1.83
2023-04-26T21:43:55.160Z,1.60
2023-04-26T21:46:22.068Z,1.70
2023-04-26T21:48:48.909Z,1.70
2023-04-26T21:51:15.812Z,1.40
2023-04-26T21:53:43.149Z,1.75
2023-04-26T21:56:10.191Z,1.80
2023-04-26T21:58:37.543Z,1.98
2023-04-26T22:01:12.198Z,1.88
2023-04-26T22:03:39.542Z,2.22
2023-04-26T22:06:08.242Z,2.20
2023-04-26T22:08:35.844Z,2.42
2023-04-26T22:11:02.902Z,1.90
2023-04-26T22:13:30.773Z,2.00
2023-04-26T22:15:57.930Z,1.90
2023-04-26T22:18:26.421Z,2.15
2023-04-26T22:20:53.884Z,2.30
2023-04-26T22:23:20.949Z,2.42
2023-04-26T22:25:47.801Z,2.50
2023-04-26T22:28:15.195Z,2.15
2023-04-26T22:30:42.014Z,2.17
2023-04-26T22:33:10.992Z,2.13
2023-04-26T22:35:38.377Z,2.00
2023-04-26T22:38:05.277Z,1.88
2023-04-26T22:40:32.699Z,2.15
2023-04-26T22:42:59.493Z,2.00
2023-04-26T22:45:26.426Z,2.15
2023-04-26T22:47:53.317Z,2.47
2023-04-26T22:50:20.387Z,2.00
2023-04-26T22:52:47.322Z,2.35
2023-04-26T22:55:14.244Z,1.90
2023-04-26T22:57:41.170Z,1.90
2023-04-26T23:00:12.635Z,1.95
2023-04-26T23:02:39.865Z,1.90
2023-04-26T23:05:09.927Z,2.05
2023-04-26T23:07:37.951Z,2.20
2023-04-26T23:10:05.438Z,2.17
2023-04-26T23:12:32.898Z,2.33
2023-04-26T23:15:00.383Z,2.08
2023-04-26T23:17:27.672Z,1.95
2023-04-26T23:19:54.942Z,1.92
2023-04-26T23:22:21.875Z,1.90
2023-04-26T23:24:48.994Z,2.13
2023-04-26T23:27:16.032Z,1.70
2023-04-26T23:29:42.798Z,1.75
2023-04-26T23:32:09.965Z,1.90
2023-04-26T23:34:36.781Z,2.10
2023-04-26T23:37:06.996Z,1.73
2023-04-26T23:39:36.020Z,1.83
2023-04-26T23:42:03.824Z,1.90
2023-04-26T23:44:30.881Z,1.67
2023-04-26T23:46:57.799Z,1.77
2023-04-26T23:49:24.714Z,1.67
2023-04-26T23:51:51.745Z,1.70
2023-04-26T23:54:18.751Z,1.70
2023-04-26T23:56:45.573Z,1.73
2023-04-26T23:59:13.410Z,1.90
